Time,TemperatureF,DewpointF,PressureIn,WindDirection,WindDirectionDegrees,WindSpeedMPH,WindSpeedGustMPH,Humidity,HourlyPrecipIn,Conditions,Clouds,dailyrainin,SoftwareType,DateUTC
2013-03-07 00:03:00,25.0,21.7,30.31,SE,133,4.0,4.0,87,0.00,,CLR,0.00,VWS V14.01,2013-03-07 06:03:00,
2013-03-07 00:08:00,25.0,21.4,30.31,SE,129,3.0,5.0,86,0.00,,CLR,0.00,VWS V14.01,2013-03-07 06:08:00,
2013-03-07 00:13:00,24.9,21.0,30.31,SE,138,3.0,4.0,85,0.00,,CLR,0.00,VWS V14.01,2013-03-07 06:13:00,
2013-03-07 00:18:00,24.8,21.2,30.31,ESE,123,2.0,2.0,86,0.00,,CLR,0.00,VWS V14.01,2013-03-07 06:18:00,
2013-03-07 00:23:00,24.7,21.1,30.31,SE,127,2.0,4.0,86,0.00,,CLR,0.00,VWS V14.01,2013-03-07 06:23:00,
2013-03-07 00:28:00,24.7,20.8,30.31,ESE,123,0.0,2.0,85,0.00,,CLR,0.00,VWS V14.01,2013-03-07 06:28:00,
2013-03-07 00:33:00,24.7,20.8,30.31,ESE,108,2.0,4.0,85,0.00,,CLR,0.00,VWS V14.01,2013-03-07 06:33:00,
2013-03-07 00:38:00,24.8,20.9,30.32,SE,139,2.0,5.0,85,0.00,,CLR,0.00,VWS V14.01,2013-03-07 06:38:00,
2013-03-07 00:43:00,25.0,21.7,30.32,ESE,123,1.0,3.0,87,0.00,,CLR,0.00,VWS V14.01,2013-03-07 06:43:00,
2013-03-07 00:48:00,25.0,21.1,30.32,ESE,113,1.0,2.0,85,0.00,,CLR,0.00,VWS V14.01,2013-03-07 06:48:00,
2013-03-07 00:53:00,24.9,20.8,30.32,SE,133,0.0,2.0,84,0.00,,CLR,0.00,VWS V14.01,2013-03-07 06:53:00,
2013-03-07 00:58:00,24.7,20.8,30.33,ESE,106,1.0,5.0,85,0.00,,CLR,0.00,VWS V14.01,2013-03-07 06:58:00,
2013-03-07 01:03:00,24.7,20.6,30.33,ESE,113,1.0,2.0,84,0.00,,CLR,0.00,VWS V14.01,2013-03-07 07:03:00,
2013-03-07 01:08:00,24.5,20.4,30.32,SE,140,2.0,2.0,84,0.00,,CLR,0.00,VWS V14.01,2013-03-07 07:08:00,
2013-03-07 01:13:00,24.6,21.3,30.32,SSE,149,1.0,3.0,87,0.00,,CLR,0.00,VWS V14.01,2013-03-07 07:13:00,
2013-03-07 01:18:00,24.5,20.9,30.32,ESE,112,1.0,1.0,86,0.00,,CLR,0.00,VWS V14.01,2013-03-07 07:18:00,
2013-03-07 01:23:00,24.3,20.5,30.32,ESE,106,2.0,2.0,85,0.00,,CLR,0.00,VWS V14.01,2013-03-07 07:23:00,
2013-03-07 01:28:00,24.3,20.5,30.32,East,87,3.0,5.0,85,0.00,,CLR,0.00,VWS V14.01,2013-03-07 07:28:00,
2013-03-07 01:33:00,24.2,20.4,30.32,East,79,1.0,3.0,85,0.00,,CLR,0.00,VWS V14.01,2013-03-07 07:33:00,
2013-03-07 01:38:00,24.1,20.2,30.32,ENE,75,2.0,2.0,85,0.00,,CLR,0.00,VWS V14.01,2013-03-07 07:38:00,
2013-03-07 01:43:00,24.1,20.2,30.32,ESE,117,1.0,2.0,85,0.00,,CLR,0.00,VWS V14.01,2013-03-07 07:43:00,
2013-03-07 01:48:00,24.1,20.2,30.32,East,81,1.0,2.0,85,0.00,,CLR,0.00,VWS V14.01,2013-03-07 07:48:00,
2013-03-07 01:53:00,24.0,20.1,30.32,East,100,1.0,5.0,85,0.00,,CLR,0.00,VWS V14.01,2013-03-07 07:53:00,
2013-03-07 01:59:00,23.9,20.1,30.32,ESE,104,3.0,3.0,85,0.00,,CLR,0.00,VWS V14.01,2013-03-07 07:59:00,
2013-03-07 02:03:00,23.9,20.1,30.31,ESE,105,3.0,5.0,85,0.00,,CLR,0.00,VWS V14.01,2013-03-07 08:03:00,
2013-03-07 02:09:00,23.8,20.0,30.31,ESE,118,2.0,5.0,85,0.00,,CLR,0.00,VWS V14.01,2013-03-07 08:09:00,
2013-03-07 02:14:00,23.7,19.9,30.30,East,91,2.0,3.0,85,0.00,,CLR,0.00,VWS V14.01,2013-03-07 08:14:00,
2013-03-07 02:19:00,23.7,20.1,30.30,East,93,3.0,5.0,86,0.00,,CLR,0.00,VWS V14.01,2013-03-07 08:19:00,
2013-03-07 02:24:00,23.6,20.0,30.30,NE,49,1.0,2.0,86,0.00,,CLR,0.00,VWS V14.01,2013-03-07 08:24:00,
2013-03-07 02:29:00,23.5,19.9,30.30,East,90,3.0,5.0,86,0.00,,CLR,0.00,VWS V14.01,2013-03-07 08:29:00,
2013-03-07 02:34:00,23.4,19.8,30.30,East,90,2.0,3.0,86,0.00,,CLR,0.00,VWS V14.01,2013-03-07 08:34:00,
2013-03-07 02:39:00,23.3,19.7,30.30,ESE,106,2.0,5.0,86,0.00,,CLR,0.00,VWS V14.01,2013-03-07 08:39:00,
2013-03-07 02:44:00,23.2,19.6,30.29,ESE,102,5.0,5.0,86,0.00,,CLR,0.00,VWS V14.01,2013-03-07 08:44:00,
2013-03-07 02:49:00,23.1,19.5,30.30,ESE,103,3.0,5.0,86,0.00,,CLR,0.00,VWS V14.01,2013-03-07 08:49:00,
2013-03-07 02:54:00,23.0,19.5,30.30,ESE,122,1.0,2.0,86,0.00,,CLR,0.00,VWS V14.01,2013-03-07 08:54:00,
2013-03-07 02:59:00,23.0,19.5,30.30,East,89,3.0,5.0,86,0.00,,CLR,0.00,VWS V14.01,2013-03-07 08:59:00,
2013-03-07 03:04:00,23.0,19.5,30.30,ESE,116,2.0,5.0,86,0.00,,CLR,0.00,VWS V14.01,2013-03-07 09:04:00,
2013-03-07 03:09:00,22.9,19.4,30.30,ESE,108,3.0,5.0,86,0.00,,CLR,0.00,VWS V14.01,2013-03-07 09:09:00,
2013-03-07 03:14:00,22.9,19.4,30.30,East,83,1.0,5.0,86,0.00,,CLR,0.00,VWS V14.01,2013-03-07 09:14:00,
2013-03-07 03:19:00,22.9,19.4,30.30,East,85,2.0,3.0,86,0.00,,CLR,0.00,VWS V14.01,2013-03-07 09:19:00,
2013-03-07 03:24:00,22.8,19.2,30.30,East,97,1.0,5.0,86,0.00,,CLR,0.00,VWS V14.01,2013-03-07 09:24:00,
2013-03-07 03:29:00,22.8,19.2,30.30,East,89,1.0,3.0,86,0.00,,CLR,0.00,VWS V14.01,2013-03-07 09:29:00,
2013-03-07 03:34:00,22.8,19.2,30.30,ESE,113,2.0,5.0,86,0.00,,CLR,0.00,VWS V14.01,2013-03-07 09:34:00,
2013-03-07 03:39:00,22.8,19.2,30.30,ESE,114,1.0,3.0,86,0.00,,CLR,0.00,VWS V14.01,2013-03-07 09:39:00,
2013-03-07 03:44:00,22.7,19.1,30.30,East,81,2.0,3.0,86,0.00,,CLR,0.00,VWS V14.01,2013-03-07 09:44:00,
2013-03-07 03:49:00,22.7,19.1,30.30,ESE,117,2.0,3.0,86,0.00,,CLR,0.00,VWS V14.01,2013-03-07 09:49:00,
2013-03-07 03:54:00,22.6,19.0,30.30,ENE,78,1.0,3.0,86,0.00,,CLR,0.00,VWS V14.01,2013-03-07 09:54:00,
2013-03-07 03:59:00,22.6,19.3,30.29,East,91,2.0,5.0,87,0.00,,CLR,0.00,VWS V14.01,2013-03-07 09:59:00,
2013-03-07 04:05:00,22.5,19.2,30.30,NE,49,1.0,3.0,87,0.00,,CLR,0.00,VWS V14.01,2013-03-07 10:05:00,
2013-03-07 04:10:00,22.5,19.0,30.29,East,88,3.0,3.0,86,0.00,,CLR,0.00,VWS V14.01,2013-03-07 10:10:00,
2013-03-07 04:15:00,22.4,19.1,30.30,East,100,1.0,5.0,87,0.00,,CLR,0.00,VWS V14.01,2013-03-07 10:15:00,
2013-03-07 04:20:00,22.4,19.1,30.30,ENE,73,2.0,5.0,87,0.00,,CLR,0.00,VWS V14.01,2013-03-07 10:20:00,
2013-03-07 04:25:00,22.3,19.0,30.29,East,87,3.0,6.0,87,0.00,,CLR,0.00,VWS V14.01,2013-03-07 10:25:00,
2013-03-07 04:30:00,22.2,18.9,30.29,ESE,121,4.0,7.0,87,0.00,,CLR,0.00,VWS V14.01,2013-03-07 10:30:00,
2013-03-07 04:35:00,22.2,18.9,30.29,East,99,3.0,6.0,87,0.00,,CLR,0.00,VWS V14.01,2013-03-07 10:35:00,
2013-03-07 04:40:00,22.1,18.8,30.29,ESE,111,3.0,5.0,87,0.00,,CLR,0.00,VWS V14.01,2013-03-07 10:40:00,
2013-03-07 04:45:00,22.1,18.8,30.29,SE,125,1.0,4.0,87,0.00,,CLR,0.00,VWS V14.01,2013-03-07 10:45:00,
2013-03-07 04:50:00,22.0,18.7,30.29,ESE,110,1.0,5.0,87,0.00,,CLR,0.00,VWS V14.01,2013-03-07 10:50:00,
2013-03-07 04:55:00,22.0,18.7,30.29,ESE,106,3.0,5.0,87,0.00,,CLR,0.00,VWS V14.01,2013-03-07 10:55:00,
2013-03-07 05:00:00,22.0,18.7,30.29,ESE,122,2.0,3.0,87,0.00,,CLR,0.00,VWS V14.01,2013-03-07 11:00:00,
2013-03-07 05:06:00,22.2,19.5,30.28,SSE,150,3.0,5.0,89,0.00,,CLR,0.00,VWS V14.01,2013-03-07 11:06:00,
2013-03-07 05:11:00,22.2,19.2,30.29,SE,137,3.0,3.0,88,0.00,,CLR,0.00,VWS V14.01,2013-03-07 11:11:00,
2013-03-07 05:16:00,22.2,19.2,30.29,SE,135,3.0,3.0,88,0.00,,CLR,0.00,VWS V14.01,2013-03-07 11:16:00,
2013-03-07 05:21:00,21.7,18.4,30.28,ESE,108,2.0,4.0,87,0.00,,CLR,0.00,VWS V14.01,2013-03-07 11:21:00,
2013-03-07 05:26:00,21.4,18.4,30.29,SE,132,5.0,5.0,88,0.00,,CLR,0.00,VWS V14.01,2013-03-07 11:26:00,
2013-03-07 05:31:00,21.5,18.5,30.29,SE,133,3.0,3.0,88,0.00,,CLR,0.00,VWS V14.01,2013-03-07 11:31:00,
2013-03-07 05:36:00,21.5,18.5,30.29,SE,134,2.0,3.0,88,0.00,,CLR,0.00,VWS V14.01,2013-03-07 11:36:00,
2013-03-07 05:41:00,21.6,18.6,30.28,ESE,118,5.0,7.0,88,0.00,,CLR,0.00,VWS V14.01,2013-03-07 11:41:00,
2013-03-07 05:46:00,21.8,18.8,30.28,ESE,118,5.0,6.0,88,0.00,,CLR,0.00,VWS V14.01,2013-03-07 11:46:00,
2013-03-07 05:51:00,22.0,19.3,30.28,SE,131,5.0,7.0,89,0.00,,CLR,0.00,VWS V14.01,2013-03-07 11:51:00,
2013-03-07 05:56:00,21.9,18.9,30.28,ESE,120,5.0,7.0,88,0.00,,CLR,0.00,VWS V14.01,2013-03-07 11:56:00,
2013-03-07 06:01:00,21.8,18.8,30.28,SE,133,6.0,8.0,88,0.00,,CLR,0.00,VWS V14.01,2013-03-07 12:01:00,
2013-03-07 06:06:00,22.0,19.0,30.29,ESE,110,3.0,5.0,88,0.00,,CLR,0.00,VWS V14.01,2013-03-07 12:06:00,
2013-03-07 06:11:00,21.9,18.9,30.29,SE,129,3.0,9.0,88,0.00,,CLR,0.00,VWS V14.01,2013-03-07 12:11:00,
2013-03-07 06:16:00,21.8,18.5,30.29,East,100,2.0,5.0,87,0.00,,CLR,0.00,VWS V14.01,2013-03-07 12:16:00,
2013-03-07 06:22:00,21.7,18.4,30.30,SE,137,6.0,8.0,87,0.00,,CLR,0.00,VWS V14.01,2013-03-07 12:22:00,
2013-03-07 06:26:00,21.7,18.4,30.30,ESE,106,5.0,8.0,87,0.00,,CLR,0.00,VWS V14.01,2013-03-07 12:26:00,
2013-03-07 06:31:00,21.6,18.3,30.30,East,98,5.0,8.0,87,0.00,,CLR,0.00,VWS V14.01,2013-03-07 12:31:00,
2013-03-07 06:36:00,21.6,18.3,30.30,SE,143,4.0,5.0,87,0.00,,CLR,0.00,VWS V14.01,2013-03-07 12:36:00,
2013-03-07 06:41:00,21.5,18.2,30.30,ESE,114,2.0,6.0,87,0.00,,CLR,0.00,VWS V14.01,2013-03-07 12:41:00,
2013-03-07 06:46:00,21.6,18.3,30.30,East,95,6.0,6.0,87,0.00,,CLR,0.00,VWS V14.01,2013-03-07 12:46:00,
2013-03-07 06:51:00,21.6,18.3,30.30,SE,134,5.0,8.0,87,0.00,,CLR,0.00,VWS V14.01,2013-03-07 12:51:00,
2013-03-07 06:57:00,21.6,18.3,30.30,ESE,102,2.0,9.0,87,0.00,,CLR,0.00,VWS V14.01,2013-03-07 12:57:00,
2013-03-07 07:02:00,21.8,18.5,30.30,ESE,104,5.0,7.0,87,0.00,,CLR,0.00,VWS V14.01,2013-03-07 13:02:00,
2013-03-07 07:07:00,21.9,18.6,30.30,East,100,3.0,9.0,87,0.00,,CLR,0.00,VWS V14.01,2013-03-07 13:07:00,
2013-03-07 07:12:00,22.1,18.8,30.30,East,85,5.0,7.0,87,0.00,,CLR,0.00,VWS V14.01,2013-03-07 13:12:00,
2013-03-07 07:17:00,22.3,19.0,30.30,East,93,6.0,7.0,87,0.00,,CLR,0.00,VWS V14.01,2013-03-07 13:17:00,
2013-03-07 07:22:00,22.5,19.0,30.30,East,97,8.0,8.0,86,0.00,,CLR,0.00,VWS V14.01,2013-03-07 13:22:00,
2013-03-07 07:27:00,22.7,19.1,30.31,SE,124,4.0,7.0,86,0.00,,CLR,0.00,VWS V14.01,2013-03-07 13:27:00,
2013-03-07 07:32:00,22.9,19.4,30.31,ESE,106,7.0,9.0,86,0.00,,CLR,0.00,VWS V14.01,2013-03-07 13:32:00,
2013-03-07 07:37:00,23.1,19.5,30.30,ESE,110,5.0,10.0,86,0.00,,CLR,0.00,VWS V14.01,2013-03-07 13:37:00,
2013-03-07 07:42:00,23.3,19.5,30.31,ESE,106,3.0,8.0,85,0.00,,FEW250,0.00,VWS V14.01,2013-03-07 13:42:00,
2013-03-07 07:47:00,23.6,20.0,30.31,SE,133,7.0,10.0,86,0.00,,FEW250,0.00,VWS V14.01,2013-03-07 13:47:00,
2013-03-07 07:52:00,24.0,20.4,30.31,ESE,122,5.0,11.0,86,0.00,,FEW250,0.00,VWS V14.01,2013-03-07 13:52:00,
2013-03-07 07:57:00,24.3,20.5,30.31,ESE,105,5.0,7.0,85,0.00,,FEW250,0.00,VWS V14.01,2013-03-07 13:57:00,
2013-03-07 08:02:00,24.6,20.5,30.31,SE,146,4.0,7.0,84,0.00,,FEW250,0.00,VWS V14.01,2013-03-07 14:02:00,
2013-03-07 08:07:00,24.7,20.6,30.31,ESE,119,4.0,9.0,84,0.00,,FEW250,0.00,VWS V14.01,2013-03-07 14:07:00,
2013-03-07 08:13:00,25.1,21.0,30.30,SE,130,8.0,9.0,84,0.00,,FEW250,0.00,VWS V14.01,2013-03-07 14:13:00,
2013-03-07 08:18:00,25.4,21.2,30.30,SSE,148,8.0,8.0,84,0.00,,FEW250,0.00,VWS V14.01,2013-03-07 14:18:00,
2013-03-07 08:23:00,25.6,21.2,30.30,ESE,117,4.0,8.0,83,0.00,,FEW250,0.00,VWS V14.01,2013-03-07 14:23:00,
2013-03-07 08:28:00,25.8,21.1,30.31,SE,137,8.0,9.0,82,0.00,,FEW250,0.00,VWS V14.01,2013-03-07 14:28:00,
2013-03-07 08:33:00,26.2,22.0,30.31,SE,129,4.0,8.0,84,0.00,,FEW250,0.00,VWS V14.01,2013-03-07 14:33:00,
2013-03-07 08:38:00,26.7,22.0,30.31,ESE,113,8.0,9.0,82,0.00,,FEW250,0.00,VWS V14.01,2013-03-07 14:38:00,
2013-03-07 08:43:00,27.1,22.4,30.31,East,94,7.0,9.0,82,0.00,,SCT250,0.00,VWS V14.01,2013-03-07 14:43:00,
2013-03-07 08:48:00,27.6,22.8,30.31,SE,139,9.0,9.0,82,0.00,,SCT250,0.00,VWS V14.01,2013-03-07 14:48:00,
2013-03-07 08:53:00,28.0,22.6,30.31,SSE,156,7.0,12.0,80,0.00,,SCT250,0.00,VWS V14.01,2013-03-07 14:53:00,
2013-03-07 08:58:00,28.5,23.4,30.30,ESE,111,7.0,10.0,81,0.00,,SCT250,0.00,VWS V14.01,2013-03-07 14:58:00,
2013-03-07 09:03:00,28.7,23.3,30.31,ESE,116,5.0,10.0,80,0.00,,SCT250,0.00,VWS V14.01,2013-03-07 15:03:00,
2013-03-07 09:08:00,29.1,24.0,30.30,East,97,9.0,9.0,81,0.00,,SCT250,0.00,VWS V14.01,2013-03-07 15:08:00,
2013-03-07 09:13:00,29.6,24.2,30.30,SE,139,6.0,13.0,80,0.00,,SCT250,0.00,VWS V14.01,2013-03-07 15:13:00,
2013-03-07 09:18:00,30.1,24.1,30.30,SE,135,7.0,13.0,78,0.00,,SCT250,0.00,VWS V14.01,2013-03-07 15:18:00,
2013-03-07 09:23:00,30.2,24.2,30.30,SE,133,6.0,13.0,78,0.00,,SCT250,0.00,VWS V14.01,2013-03-07 15:23:00,
2013-03-07 09:29:00,30.6,24.6,30.30,ENE,77,5.0,8.0,78,0.00,,SCT250,0.00,VWS V14.01,2013-03-07 15:29:00,
2013-03-07 09:34:00,30.8,24.5,30.30,SE,141,7.0,12.0,77,0.00,,SCT250,0.00,VWS V14.01,2013-03-07 15:34:00,
2013-03-07 09:39:00,31.2,24.8,30.30,ESE,116,9.0,12.0,77,0.00,,SCT250,0.00,VWS V14.01,2013-03-07 15:39:00,
2013-03-07 09:44:00,31.3,24.6,30.30,SSE,164,13.0,15.0,76,0.00,,BKN250,0.00,VWS V14.01,2013-03-07 15:44:00,
2013-03-07 09:49:00,31.4,24.4,30.30,SSE,160,7.0,16.0,75,0.00,,BKN250,0.00,VWS V14.01,2013-03-07 15:49:00,
2013-03-07 09:54:00,32.0,25.0,30.29,ESE,102,7.0,10.0,75,0.00,,BKN250,0.00,VWS V14.01,2013-03-07 15:54:00,
2013-03-07 09:59:00,32.2,25.2,30.29,SE,126,9.0,11.0,75,0.00,,BKN250,0.00,VWS V14.01,2013-03-07 15:59:00,
2013-03-07 10:04:00,32.5,25.5,30.29,ESE,114,12.0,12.0,75,0.00,,BKN250,0.00,VWS V14.01,2013-03-07 16:04:00,
2013-03-07 10:09:00,32.9,25.5,30.28,SE,143,8.0,12.0,74,0.00,,BKN250,0.00,VWS V14.01,2013-03-07 16:09:00,
2013-03-07 10:14:00,33.7,26.0,30.28,ESE,112,8.0,16.0,73,0.00,,BKN250,0.00,VWS V14.01,2013-03-07 16:14:00,
2013-03-07 10:19:00,33.5,25.5,30.28,ESE,120,7.0,13.0,72,0.00,,BKN250,0.00,VWS V14.01,2013-03-07 16:19:00,
2013-03-07 10:24:00,33.6,25.5,30.28,SE,125,5.0,10.0,72,0.00,,BKN250,0.00,VWS V14.01,2013-03-07 16:24:00,
2013-03-07 10:29:00,34.2,26.1,30.28,ESE,122,13.0,13.0,72,0.00,,BKN250,0.00,VWS V14.01,2013-03-07 16:29:00,
2013-03-07 10:34:00,34.6,26.5,30.28,SE,129,11.0,13.0,72,0.00,,BKN250,0.00,VWS V14.01,2013-03-07 16:34:00,
2013-03-07 10:39:00,35.3,26.5,30.28,SE,140,11.0,13.0,70,0.00,,BKN250,0.00,VWS V14.01,2013-03-07 16:39:00,
2013-03-07 10:44:00,35.3,26.5,30.28,ESE,120,8.0,13.0,70,0.00,,BKN250,0.00,VWS V14.01,2013-03-07 16:44:00,
2013-03-07 10:49:00,35.2,26.4,30.28,ESE,119,10.0,13.0,70,0.00,,BKN250,0.00,VWS V14.01,2013-03-07 16:49:00,
2013-03-07 10:54:00,35.6,26.5,30.27,ESE,108,7.0,9.0,69,0.00,,BKN250,0.00,VWS V14.01,2013-03-07 16:54:00,
2013-03-07 10:59:00,36.2,27.0,30.27,SE,133,9.0,11.0,69,0.00,,BKN250,0.00,VWS V14.01,2013-03-07 16:59:00,
2013-03-07 11:04:00,36.5,27.0,30.27,ESE,123,10.0,11.0,68,0.00,,BKN250,0.00,VWS V14.01,2013-03-07 17:04:00,
2013-03-07 11:09:00,36.6,27.0,30.27,SE,143,8.0,11.0,68,0.00,,BKN250,0.00,VWS V14.01,2013-03-07 17:09:00,
2013-03-07 11:15:00,36.7,27.5,30.27,ESE,123,9.0,11.0,69,0.00,,BKN250,0.00,VWS V14.01,2013-03-07 17:15:00,
2013-03-07 11:20:00,37.0,27.1,30.26,SE,134,8.0,16.0,67,0.00,,BKN250,0.00,VWS V14.01,2013-03-07 17:20:00,
2013-03-07 11:25:00,37.3,27.4,30.26,SSE,152,7.0,10.0,67,0.00,,BKN250,0.00,VWS V14.01,2013-03-07 17:25:00,
2013-03-07 11:30:00,37.8,27.5,30.26,SE,132,5.0,13.0,66,0.00,,BKN250,0.00,VWS V14.01,2013-03-07 17:30:00,
2013-03-07 11:35:00,38.1,27.8,30.26,ESE,118,8.0,11.0,66,0.00,,BKN250,0.00,VWS V14.01,2013-03-07 17:35:00,
2013-03-07 11:40:00,38.6,28.2,30.26,SE,139,7.0,11.0,66,0.00,,BKN250,0.00,VWS V14.01,2013-03-07 17:40:00,
2013-03-07 11:45:00,38.8,28.1,30.26,SE,139,7.0,11.0,65,0.00,,OVC250,0.00,VWS V14.01,2013-03-07 17:45:00,
2013-03-07 11:50:00,39.1,28.0,30.26,SE,146,13.0,17.0,64,0.00,,OVC250,0.00,VWS V14.01,2013-03-07 17:50:00,
2013-03-07 11:55:00,39.5,28.7,30.25,ESE,121,10.0,10.0,65,0.00,,OVC250,0.00,VWS V14.01,2013-03-07 17:55:00,
2013-03-07 12:00:00,40.1,29.3,30.25,SE,133,7.0,10.0,65,0.00,,OVC250,0.00,VWS V14.01,2013-03-07 18:00:00,
2013-03-07 12:05:00,39.8,28.2,30.24,SSE,159,12.0,15.0,63,0.00,,OVC250,0.00,VWS V14.01,2013-03-07 18:05:00,
2013-03-07 12:10:00,40.1,28.1,30.25,SSE,156,11.0,18.0,62,0.00,,OVC250,0.00,VWS V14.01,2013-03-07 18:10:00,
2013-03-07 12:15:00,40.5,28.1,30.24,SE,140,11.0,17.0,61,0.00,,OVC250,0.00,VWS V14.01,2013-03-07 18:15:00,
2013-03-07 12:20:00,41.6,29.2,30.24,SSE,147,15.0,17.0,61,0.00,,OVC250,0.00,VWS V14.01,2013-03-07 18:20:00,
2013-03-07 12:25:00,41.2,29.2,30.23,SE,125,13.0,15.0,62,0.00,,OVC250,0.00,VWS V14.01,2013-03-07 18:25:00,
2013-03-07 12:30:00,41.6,28.8,30.23,SE,140,16.0,18.0,60,0.00,,OVC250,0.00,VWS V14.01,2013-03-07 18:30:00,
2013-03-07 12:35:00,42.0,29.5,30.23,SE,144,15.0,15.0,61,0.00,,OVC250,0.00,VWS V14.01,2013-03-07 18:35:00,
2013-03-07 12:40:00,42.2,29.7,30.23,SSE,156,15.0,15.0,61,0.00,,OVC250,0.00,VWS V14.01,2013-03-07 18:40:00,
2013-03-07 12:45:00,42.3,29.0,30.22,SE,144,7.0,13.0,59,0.00,,OVC250,0.00,VWS V14.01,2013-03-07 18:45:00,
2013-03-07 12:50:00,42.6,29.3,30.22,SSE,147,9.0,11.0,59,0.00,,OVC250,0.00,VWS V14.01,2013-03-07 18:50:00,
2013-03-07 12:55:00,42.9,30.0,30.21,ESE,120,12.0,14.0,60,0.00,,OVC250,0.00,VWS V14.01,2013-03-07 18:55:00,
2013-03-07 13:00:00,43.3,29.5,30.21,ESE,116,11.0,15.0,58,0.00,,OVC250,0.00,VWS V14.01,2013-03-07 19:00:00,
2013-03-07 13:05:00,43.4,30.0,30.21,SE,141,11.0,14.0,59,0.00,,OVC250,0.00,VWS V14.01,2013-03-07 19:05:00,
2013-03-07 13:10:00,44.0,29.8,30.21,SSE,157,12.0,16.0,57,0.00,,OVC250,0.00,VWS V14.01,2013-03-07 19:10:00,
2013-03-07 13:15:00,44.0,29.8,30.21,SE,139,15.0,18.0,57,0.00,,OVC250,0.00,VWS V14.01,2013-03-07 19:15:00,
2013-03-07 13:20:00,44.1,29.4,30.20,ESE,112,9.0,16.0,56,0.00,,OVC250,0.00,VWS V14.01,2013-03-07 19:20:00,
2013-03-07 13:25:00,44.2,29.5,30.19,ESE,112,12.0,14.0,56,0.00,,OVC250,0.00,VWS V14.01,2013-03-07 19:25:00,
2013-03-07 13:30:00,44.5,29.8,30.19,SE,134,8.0,14.0,56,0.00,,OVC250,0.00,VWS V14.01,2013-03-07 19:30:00,
2013-03-07 13:35:00,44.9,30.2,30.18,SSE,153,6.0,15.0,56,0.00,,OVC250,0.00,VWS V14.01,2013-03-07 19:35:00,
2013-03-07 13:40:00,45.4,30.2,30.18,SE,141,9.0,15.0,55,0.00,,OVC250,0.00,VWS V14.01,2013-03-07 19:40:00,
2013-03-07 13:46:00,46.0,30.8,30.17,SE,128,15.0,16.0,55,0.00,,OVC250,0.00,VWS V14.01,2013-03-07 19:46:00,
2013-03-07 13:51:00,46.0,30.3,30.17,SE,141,8.0,14.0,54,0.00,,OVC250,0.00,VWS V14.01,2013-03-07 19:51:00,
2013-03-07 13:56:00,46.0,30.3,30.17,SSE,150,12.0,17.0,54,0.00,,OVC250,0.00,VWS V14.01,2013-03-07 19:56:00,
2013-03-07 14:01:00,46.1,29.9,30.17,ESE,117,10.0,16.0,53,0.00,,OVC250,0.00,VWS V14.01,2013-03-07 20:01:00,
2013-03-07 14:06:00,46.1,30.4,30.16,SE,127,8.0,16.0,54,0.00,,OVC250,0.00,VWS V14.01,2013-03-07 20:06:00,
2013-03-07 14:11:00,46.4,31.1,30.16,SE,127,6.0,16.0,55,0.00,,OVC250,0.00,VWS V14.01,2013-03-07 20:11:00,
2013-03-07 14:16:00,46.6,30.9,30.16,SE,131,11.0,17.0,54,0.00,,OVC250,0.00,VWS V14.01,2013-03-07 20:16:00,
2013-03-07 14:21:00,46.8,30.1,30.16,ESE,123,9.0,15.0,52,0.00,,OVC250,0.00,VWS V14.01,2013-03-07 20:21:00,
2013-03-07 14:26:00,46.8,30.6,30.16,ESE,114,12.0,15.0,53,0.00,,OVC250,0.00,VWS V14.01,2013-03-07 20:26:00,
2013-03-07 14:31:00,46.5,30.8,30.15,SE,130,10.0,13.0,54,0.00,,OVC250,0.00,VWS V14.01,2013-03-07 20:31:00,
2013-03-07 14:36:00,46.8,30.1,30.15,SE,144,14.0,17.0,52,0.00,,OVC250,0.00,VWS V14.01,2013-03-07 20:36:00,
2013-03-07 14:41:00,47.3,30.6,30.15,SSE,152,13.0,15.0,52,0.00,,OVC250,0.00,VWS V14.01,2013-03-07 20:41:00,
2013-03-07 14:46:00,47.3,31.0,30.16,SE,145,13.0,16.0,53,0.00,,OVC250,0.00,VWS V14.01,2013-03-07 20:46:00,
2013-03-07 14:51:00,47.5,30.8,30.16,SE,135,11.0,14.0,52,0.00,,OVC250,0.00,VWS V14.01,2013-03-07 20:51:00,
2013-03-07 14:56:00,47.4,30.7,30.15,SE,143,11.0,16.0,52,0.00,,OVC250,0.00,VWS V14.01,2013-03-07 20:56:00,
2013-03-07 15:01:00,47.1,30.4,30.15,SSE,149,12.0,13.0,52,0.00,,OVC250,0.00,VWS V14.01,2013-03-07 21:01:00,
2013-03-07 15:06:00,47.1,30.4,30.15,SE,130,17.0,19.0,52,0.00,,OVC250,0.00,VWS V14.01,2013-03-07 21:06:00,
2013-03-07 15:12:00,47.4,30.7,30.15,SSE,149,11.0,14.0,52,0.00,,OVC250,0.00,VWS V14.01,2013-03-07 21:12:00,
2013-03-07 15:17:00,47.7,31.0,30.15,SSE,161,7.0,9.0,52,0.00,,OVC250,0.00,VWS V14.01,2013-03-07 21:17:00,
2013-03-07 15:22:00,47.7,30.0,30.15,South,169,12.0,17.0,50,0.00,,OVC250,0.00,VWS V14.01,2013-03-07 21:22:00,
2013-03-07 15:27:00,47.6,30.4,30.15,SSE,154,12.0,16.0,51,0.00,,OVC250,0.00,VWS V14.01,2013-03-07 21:27:00,
2013-03-07 15:32:00,47.6,30.4,30.15,SE,137,7.0,14.0,51,0.00,,OVC250,0.00,VWS V14.01,2013-03-07 21:32:00,
2013-03-07 15:43:00,47.6,29.9,30.15,SSE,168,7.0,18.0,50,0.00,,OVC250,0.00,VWS V14.01,2013-03-07 21:43:00,
2013-03-07 15:48:00,47.6,30.9,30.15,SE,143,10.0,11.0,52,0.00,,OVC250,0.00,VWS V14.01,2013-03-07 21:48:00,
2013-03-07 15:53:00,47.5,30.8,30.15,ESE,116,9.0,14.0,52,0.00,,OVC250,0.00,VWS V14.01,2013-03-07 21:53:00,
2013-03-07 15:58:00,47.4,30.2,30.15,SE,131,8.0,15.0,51,0.00,,OVC250,0.00,VWS V14.01,2013-03-07 21:58:00,
2013-03-07 16:07:00,47.4,30.7,30.15,SSE,150,13.0,13.0,52,0.00,,OVC250,0.00,VWS V14.01,2013-03-07 22:07:00,
2013-03-07 16:12:00,47.1,30.4,30.15,SSE,148,10.0,12.0,52,0.00,,OVC250,0.00,VWS V14.01,2013-03-07 22:12:00,
2013-03-07 16:17:00,47.2,30.5,30.15,SE,131,11.0,13.0,52,0.00,,OVC250,0.00,VWS V14.01,2013-03-07 22:17:00,
2013-03-07 16:22:00,46.9,30.7,30.15,SE,145,4.0,11.0,53,0.00,,OVC250,0.00,VWS V14.01,2013-03-07 22:22:00,
2013-03-07 16:27:00,47.0,30.8,30.15,SSE,149,16.0,16.0,53,0.00,,OVC250,0.00,VWS V14.01,2013-03-07 22:27:00,
2013-03-07 16:32:00,47.0,30.8,30.15,ESE,118,15.0,15.0,53,0.00,,OVC250,0.00,VWS V14.01,2013-03-07 22:32:00,
2013-03-07 16:37:00,46.9,30.7,30.15,SE,142,11.0,12.0,53,0.00,,OVC250,0.00,VWS V14.01,2013-03-07 22:37:00,
2013-03-07 16:42:00,46.4,29.8,30.15,ESE,122,10.0,16.0,52,0.00,,BKN250,0.00,VWS V14.01,2013-03-07 22:42:00,
2013-03-07 16:47:00,46.0,29.8,30.15,SSE,158,7.0,17.0,53,0.00,,BKN250,0.00,VWS V14.01,2013-03-07 22:47:00,
2013-03-07 16:53:00,45.9,30.2,30.15,SSE,154,12.0,13.0,54,0.00,,BKN250,0.00,VWS V14.01,2013-03-07 22:53:00,
2013-03-07 16:58:00,45.7,30.0,30.15,ESE,122,11.0,14.0,54,0.00,,BKN250,0.00,VWS V14.01,2013-03-07 22:58:00,
2013-03-07 17:03:00,45.7,30.0,30.15,SE,140,10.0,12.0,54,0.00,,BKN250,0.00,VWS V14.01,2013-03-07 23:03:00,
2013-03-07 17:08:00,45.8,31.0,30.16,SE,128,4.0,7.0,56,0.00,,BKN250,0.00,VWS V14.01,2013-03-07 23:08:00,
2013-03-07 17:13:00,45.5,30.3,30.16,SSE,156,5.0,11.0,55,0.00,,BKN250,0.00,VWS V14.01,2013-03-07 23:13:00,
2013-03-07 17:18:00,45.2,30.0,30.16,SSE,147,15.0,15.0,55,0.00,,BKN250,0.00,VWS V14.01,2013-03-07 23:18:00,
2013-03-07 17:23:00,44.9,30.2,30.16,SE,143,10.0,10.0,56,0.00,,BKN250,0.00,VWS V14.01,2013-03-07 23:23:00,
2013-03-07 17:28:00,44.7,30.0,30.16,SE,146,6.0,11.0,56,0.00,,BKN250,0.00,VWS V14.01,2013-03-07 23:28:00,
2013-03-07 17:33:00,44.4,30.1,30.16,SE,146,9.0,14.0,57,0.00,,BKN250,0.00,VWS V14.01,2013-03-07 23:33:00,
2013-03-07 17:38:00,44.2,30.0,30.16,SE,143,7.0,12.0,57,0.00,,BKN250,0.00,VWS V14.01,2013-03-07 23:38:00,
2013-03-07 17:43:00,43.7,29.9,30.17,SE,130,7.0,10.0,58,0.00,,BKN250,0.00,VWS V14.01,2013-03-07 23:43:00,
2013-03-07 17:48:00,43.2,29.9,30.17,SE,137,8.0,9.0,59,0.00,,BKN250,0.00,VWS V14.01,2013-03-07 23:48:00,
2013-03-07 17:53:00,42.6,29.7,30.17,ESE,110,5.0,9.0,60,0.00,,BKN250,0.00,VWS V14.01,2013-03-07 23:53:00,
2013-03-07 17:58:00,42.1,30.0,30.18,SE,136,6.0,11.0,62,0.00,,BKN250,0.00,VWS V14.01,2013-03-07 23:58:00,
2013-03-07 18:03:00,41.5,29.9,30.17,SE,138,4.0,5.0,63,0.00,,BKN250,0.00,VWS V14.01,2013-03-08 00:03:00,
2013-03-07 18:08:00,41.0,29.4,30.17,ESE,119,9.0,10.0,63,0.00,,BKN250,0.00,VWS V14.01,2013-03-08 00:08:00,
2013-03-07 18:13:00,40.8,29.6,30.17,SE,125,4.0,7.0,64,0.00,,BKN250,0.00,VWS V14.01,2013-03-08 00:13:00,
2013-03-07 18:19:00,40.4,29.2,30.17,SE,131,6.0,9.0,64,0.00,,BKN250,0.00,VWS V14.01,2013-03-08 00:19:00,
2013-03-07 18:24:00,40.1,29.3,30.17,SE,129,7.0,7.0,65,0.00,,BKN250,0.00,VWS V14.01,2013-03-08 00:24:00,
2013-03-07 18:29:00,39.7,28.9,30.17,East,100,6.0,9.0,65,0.00,,BKN250,0.00,VWS V14.01,2013-03-08 00:29:00,
2013-03-07 18:34:00,39.3,28.9,30.18,ESE,106,4.0,8.0,66,0.00,,BKN250,0.00,VWS V14.01,2013-03-08 00:34:00,
2013-03-07 18:39:00,38.8,28.8,30.18,SSE,154,8.0,9.0,67,0.00,,BKN250,0.00,VWS V14.01,2013-03-08 00:39:00,
2013-03-07 18:44:00,38.4,28.8,30.18,SE,140,5.0,9.0,68,0.00,,BKN250,0.00,VWS V14.01,2013-03-08 00:44:00,
2013-03-07 18:49:00,38.1,28.8,30.18,SE,146,6.0,7.0,69,0.00,,BKN250,0.00,VWS V14.01,2013-03-08 00:49:00,
2013-03-07 18:54:00,37.8,28.9,30.18,SE,125,4.0,7.0,70,0.00,,BKN250,0.00,VWS V14.01,2013-03-08 00:54:00,
2013-03-07 18:59:00,37.4,28.5,30.18,ESE,123,6.0,8.0,70,0.00,,BKN250,0.00,VWS V14.01,2013-03-08 00:59:00,
2013-03-07 19:04:00,37.3,28.4,30.18,East,83,6.0,9.0,70,0.00,,BKN250,0.00,VWS V14.01,2013-03-08 01:04:00,
2013-03-07 19:09:00,37.0,28.1,30.18,SE,124,4.0,9.0,70,0.00,,BKN250,0.00,VWS V14.01,2013-03-08 01:09:00,
2013-03-07 19:14:00,36.8,28.3,30.18,ESE,106,4.0,5.0,71,0.00,,BKN250,0.00,VWS V14.01,2013-03-08 01:14:00,
2013-03-07 19:19:00,36.5,28.4,30.18,East,91,3.0,11.0,72,0.00,,BKN250,0.00,VWS V14.01,2013-03-08 01:19:00,
2013-03-07 19:24:00,36.4,28.2,30.18,SE,127,5.0,6.0,72,0.00,,BKN250,0.00,VWS V14.01,2013-03-08 01:24:00,
2013-03-07 19:29:00,36.0,28.2,30.18,ESE,114,5.0,9.0,73,0.00,,BKN250,0.00,VWS V14.01,2013-03-08 01:29:00,
2013-03-07 19:34:00,36.0,28.2,30.19,ESE,120,5.0,8.0,73,0.00,,BKN250,0.00,VWS V14.01,2013-03-08 01:34:00,
2013-03-07 19:39:00,36.0,28.2,30.19,SE,137,4.0,8.0,73,0.00,,BKN250,0.00,VWS V14.01,2013-03-08 01:39:00,
2013-03-07 19:44:00,35.8,28.0,30.19,SE,130,3.0,5.0,73,0.00,,BKN250,0.00,VWS V14.01,2013-03-08 01:44:00,
2013-03-07 19:49:00,35.7,27.9,30.19,SE,139,5.0,7.0,73,0.00,,BKN250,0.00,VWS V14.01,2013-03-08 01:49:00,
2013-03-07 19:54:00,35.6,27.8,30.19,SE,125,3.0,7.0,73,0.00,,BKN250,0.00,VWS V14.01,2013-03-08 01:54:00,
2013-03-07 19:59:00,35.3,27.9,30.19,SE,135,2.0,7.0,74,0.00,,BKN250,0.00,VWS V14.01,2013-03-08 01:59:00,
2013-03-07 20:04:00,35.0,27.6,30.19,SE,139,6.0,8.0,74,0.00,,BKN250,0.00,VWS V14.01,2013-03-08 02:04:00,
2013-03-07 20:09:00,34.9,27.5,30.20,SE,131,3.0,7.0,74,0.00,,BKN250,0.00,VWS V14.01,2013-03-08 02:09:00,
2013-03-07 20:14:00,34.7,27.3,30.20,SE,127,3.0,4.0,74,0.00,,BKN250,0.00,VWS V14.01,2013-03-08 02:14:00,
2013-03-07 20:20:00,34.6,27.5,30.20,SE,131,5.0,6.0,75,0.00,,BKN250,0.00,VWS V14.01,2013-03-08 02:20:00,
2013-03-07 20:25:00,34.4,27.3,30.20,SE,137,5.0,6.0,75,0.00,,BKN250,0.00,VWS V14.01,2013-03-08 02:25:00,
2013-03-07 20:30:00,34.2,27.4,30.20,ESE,117,5.0,8.0,76,0.00,,BKN250,0.00,VWS V14.01,2013-03-08 02:30:00,
2013-03-07 20:35:00,34.4,27.3,30.20,ESE,122,4.0,7.0,75,0.00,,BKN250,0.00,VWS V14.01,2013-03-08 02:35:00,
2013-03-07 20:40:00,34.2,27.1,30.20,SE,129,4.0,5.0,75,0.00,,BKN250,0.00,VWS V14.01,2013-03-08 02:40:00,
2013-03-07 20:45:00,33.9,27.1,30.21,ESE,108,2.0,5.0,76,0.00,,BKN250,0.00,VWS V14.01,2013-03-08 02:45:00,
2013-03-07 20:50:00,33.9,27.1,30.21,East,95,5.0,8.0,76,0.00,,BKN250,0.00,VWS V14.01,2013-03-08 02:50:00,
2013-03-07 20:55:00,34.0,27.2,30.20,ESE,118,5.0,7.0,76,0.00,,BKN250,0.00,VWS V14.01,2013-03-08 02:55:00,
2013-03-07 21:00:00,33.9,27.1,30.21,East,98,6.0,7.0,76,0.00,,BKN250,0.00,VWS V14.01,2013-03-08 03:00:00,
2013-03-07 21:05:00,33.8,27.0,30.20,East,91,6.0,8.0,76,0.00,,BKN250,0.00,VWS V14.01,2013-03-08 03:05:00,
2013-03-07 21:10:00,33.7,27.3,30.20,East,90,3.0,8.0,77,0.00,,BKN250,0.00,VWS V14.01,2013-03-08 03:10:00,
2013-03-07 21:15:00,33.5,27.1,30.20,SE,135,2.0,5.0,77,0.00,,BKN250,0.00,VWS V14.01,2013-03-08 03:15:00,
2013-03-07 21:20:00,33.3,26.9,30.21,East,96,5.0,7.0,77,0.00,,BKN250,0.00,VWS V14.01,2013-03-08 03:20:00,
2013-03-07 21:25:00,33.3,26.9,30.21,East,97,3.0,9.0,77,0.00,,BKN250,0.00,VWS V14.01,2013-03-08 03:25:00,
2013-03-07 21:30:00,33.3,26.9,30.21,ESE,109,5.0,8.0,77,0.00,,BKN250,0.00,VWS V14.01,2013-03-08 03:30:00,
2013-03-07 21:35:00,33.3,26.9,30.21,ESE,119,4.0,9.0,77,0.00,,BKN250,0.00,VWS V14.01,2013-03-08 03:35:00,
2013-03-07 21:40:00,33.3,26.9,30.21,ESE,106,9.0,10.0,77,0.00,,BKN250,0.00,VWS V14.01,2013-03-08 03:40:00,
2013-03-07 21:45:00,33.2,26.8,30.21,ESE,102,4.0,7.0,77,0.00,,BKN250,0.00,VWS V14.01,2013-03-08 03:45:00,
2013-03-07 21:50:00,33.1,27.0,30.21,East,87,7.0,9.0,78,0.00,,BKN250,0.00,VWS V14.01,2013-03-08 03:50:00,
2013-03-07 21:55:00,33.1,27.0,30.21,ESE,108,5.0,8.0,78,0.00,,BKN250,0.00,VWS V14.01,2013-03-08 03:55:00,
2013-03-07 22:00:00,33.0,26.9,30.21,ENE,78,6.0,7.0,78,0.00,,BKN250,0.00,VWS V14.01,2013-03-08 04:00:00,
2013-03-07 22:05:00,32.9,26.8,30.21,ESE,102,4.0,8.0,78,0.00,,BKN250,0.00,VWS V14.01,2013-03-08 04:05:00,
2013-03-07 22:10:00,32.8,26.7,30.22,East,86,5.0,6.0,78,0.00,,BKN250,0.00,VWS V14.01,2013-03-08 04:10:00,
2013-03-07 22:15:00,32.7,26.6,30.22,SE,144,7.0,8.0,78,0.00,,BKN250,0.00,VWS V14.01,2013-03-08 04:15:00,
2013-03-07 22:20:00,32.7,26.6,30.22,East,89,8.0,8.0,78,0.00,,BKN250,0.00,VWS V14.01,2013-03-08 04:20:00,
2013-03-07 22:26:00,32.7,26.6,30.22,East,98,6.0,7.0,78,0.00,,BKN250,0.00,VWS V14.01,2013-03-08 04:26:00,
2013-03-07 22:31:00,32.5,26.4,30.22,East,85,2.0,5.0,78,0.00,,BKN250,0.00,VWS V14.01,2013-03-08 04:31:00,
2013-03-07 22:36:00,32.3,26.5,30.22,ESE,111,5.0,6.0,79,0.00,,BKN250,0.00,VWS V14.01,2013-03-08 04:36:00,
2013-03-07 22:41:00,32.3,26.5,30.22,East,97,6.0,6.0,79,0.00,,BKN250,0.00,VWS V14.01,2013-03-08 04:41:00,
2013-03-07 22:46:00,32.3,26.5,30.22,ESE,106,4.0,9.0,79,0.00,,BKN250,0.00,VWS V14.01,2013-03-08 04:46:00,
2013-03-07 22:51:00,32.5,26.4,30.22,East,85,3.0,6.0,78,0.00,,BKN250,0.00,VWS V14.01,2013-03-08 04:51:00,
2013-03-07 22:56:00,32.4,26.6,30.22,East,90,5.0,6.0,79,0.00,,BKN250,0.00,VWS V14.01,2013-03-08 04:56:00,
2013-03-07 23:00:00,32.3,26.5,30.22,East,93,5.0,8.0,79,0.00,,BKN250,0.00,VWS V14.01,2013-03-08 05:00:00,
2013-03-07 23:03:00,32.1,26.3,30.23,ESE,113,7.0,7.0,79,0.00,,BKN250,0.00,VWS V14.01,2013-03-08 05:03:00,
2013-03-07 23:08:00,32.1,26.3,30.23,ESE,103,2.0,3.0,79,0.00,,BKN250,0.00,VWS V14.01,2013-03-08 05:08:00,
2013-03-07 23:13:00,31.9,26.4,30.23,East,80,1.0,5.0,80,0.00,,BKN250,0.00,VWS V14.01,2013-03-08 05:13:00,
2013-03-07 23:18:00,31.6,26.1,30.23,ESE,113,3.0,5.0,80,0.00,,BKN250,0.00,VWS V14.01,2013-03-08 05:18:00,
2013-03-07 23:23:00,31.6,26.1,30.23,East,93,6.0,6.0,80,0.00,,BKN250,0.00,VWS V14.01,2013-03-08 05:23:00,
2013-03-07 23:28:00,31.5,26.0,30.23,ESE,110,3.0,5.0,80,0.00,,BKN250,0.00,VWS V14.01,2013-03-08 05:28:00,
2013-03-07 23:33:00,31.5,26.0,30.23,East,97,5.0,5.0,80,0.00,,BKN250,0.00,VWS V14.01,2013-03-08 05:33:00,
2013-03-07 23:38:00,31.4,26.0,30.23,East,85,5.0,5.0,80,0.00,,BKN250,0.00,VWS V14.01,2013-03-08 05:38:00,
2013-03-07 23:43:00,31.3,26.2,30.23,East,91,2.0,8.0,81,0.00,,BKN250,0.00,VWS V14.01,2013-03-08 05:43:00,
2013-03-07 23:48:00,31.3,26.2,30.23,East,91,6.0,8.0,81,0.00,,BKN250,0.00,VWS V14.01,2013-03-08 05:48:00,
2013-03-07 23:53:00,31.4,26.2,30.23,ESE,107,3.0,5.0,81,0.00,,BKN250,0.00,VWS V14.01,2013-03-08 05:53:00,
2013-03-07 23:58:00,31.5,26.4,30.23,ESE,107,8.0,8.0,81,0.00,,BKN250,0.00,VWS V14.01,2013-03-08 05:58:00,